sensor_id;sensor_type;location;lat;lon;timestamp;temperature;humidity
6930;DHT22;3504;52.616;13.238;2024-01-25T00:03:53;8.26;71.78
6930;DHT22;3504;52.616;13.238;2024-01-25T00:08:53;8.22;72.28
6930;DHT22;3504;52.616;13.238;2024-01-25T00:13:54;8.19;72.59
6930;DHT22;3504;52.616;13.238;2024-01-25T00:18:54;8.21;72.67
6930;DHT22;3504;52.616;13.238;2024-01-25T00:23:55;8.15;72.79
6930;DHT22;3504;52.616;13.238;2024-01-25T00:28:55;8.14;72.68
6930;DHT22;3504;52.616;13.238;2024-01-25T00:33:57;8.16;72.73
6930;DHT22;3504;52.616;13.238;2024-01-25T00:38:58;8.16;72.94
6930;DHT22;3504;52.616;13.238;2024-01-25T00:43:59;8.21;72.81
6930;DHT22;3504;52.616;13.238;2024-01-25T00:49:00;8.18;72.59
6930;DHT22;3504;52.616;13.238;2024-01-25T00:54:00;8.18;72.75
6930;DHT22;3504;52.616;13.238;2024-01-25T00:59:01;8.21;72.81
6930;DHT22;3504;52.616;13.238;2024-01-25T01:04:02;8.14;72.92
6930;DHT22;3504;52.616;13.238;2024-01-25T01:09:02;8.18;72.85
6930;DHT22;3504;52.616;13.238;2024-01-25T01:14:04;8.18;72.82
6930;DHT22;3504;52.616;13.238;2024-01-25T01:19:04;8.22;72.80
6930;DHT22;3504;52.616;13.238;2024-01-25T01:24:07;8.16;72.89
6930;DHT22;3504;52.616;13.238;2024-01-25T01:29:08;8.16;73.08
6930;DHT22;3504;52.616;13.238;2024-01-25T01:34:11;8.14;72.85
6930;DHT22;3504;52.616;13.238;2024-01-25T01:39:15;8.16;72.97
6930;DHT22;3504;52.616;13.238;2024-01-25T01:44:15;8.16;73.01
6930;DHT22;3504;52.616;13.238;2024-01-25T01:49:16;8.14;72.79
6930;DHT22;3504;52.616;13.238;2024-01-25T01:54:17;8.09;73.01
6930;DHT22;3504;52.616;13.238;2024-01-25T01:59:18;8.11;72.74
6930;DHT22;3504;52.616;13.238;2024-01-25T02:04:18;8.11;72.80
6930;DHT22;3504;52.616;13.238;2024-01-25T02:09:19;8.05;72.72
6930;DHT22;3504;52.616;13.238;2024-01-25T02:14:20;8.07;73.10
6930;DHT22;3504;52.616;13.238;2024-01-25T02:19:20;8.04;73.10
6930;DHT22;3504;52.616;13.238;2024-01-25T02:24:21;7.99;73.06
6930;DHT22;3504;52.616;13.238;2024-01-25T02:29:22;7.97;73.02
6930;DHT22;3504;52.616;13.238;2024-01-25T02:34:22;7.98;73.10
6930;DHT22;3504;52.616;13.238;2024-01-25T02:39:23;7.95;73.26
6930;DHT22;3504;52.616;13.238;2024-01-25T02:44:23;7.93;73.10
6930;DHT22;3504;52.616;13.238;2024-01-25T02:49:24;7.93;73.37
6930;DHT22;3504;52.616;13.238;2024-01-25T02:54:24;7.91;73.22
6930;DHT22;3504;52.616;13.238;2024-01-25T02:59:25;7.90;73.12
6930;DHT22;3504;52.616;13.238;2024-01-25T03:04:25;7.91;72.97
6930;DHT22;3504;52.616;13.238;2024-01-25T03:09:26;7.90;72.81
6930;DHT22;3504;52.616;13.238;2024-01-25T03:14:27;7.91;72.92
6930;DHT22;3504;52.616;13.238;2024-01-25T03:19:28;7.90;72.76
6930;DHT22;3504;52.616;13.238;2024-01-25T03:24:29;7.87;72.53
6930;DHT22;3504;52.616;13.238;2024-01-25T03:29:29;7.85;72.19
6930;DHT22;3504;52.616;13.238;2024-01-25T03:34:30;7.88;72.28
6930;DHT22;3504;52.616;13.238;2024-01-25T03:39:30;7.85;72.13
6930;DHT22;3504;52.616;13.238;2024-01-25T03:44:31;7.84;72.36
6930;DHT22;3504;52.616;13.238;2024-01-25T03:49:31;7.84;72.34
6930;DHT22;3504;52.616;13.238;2024-01-25T03:54:32;7.83;72.48
6930;DHT22;3504;52.616;13.238;2024-01-25T03:59:32;7.78;72.17
6930;DHT22;3504;52.616;13.238;2024-01-25T04:04:33;7.78;72.38
6930;DHT22;3504;52.616;13.238;2024-01-25T04:09:33;7.77;72.57
6930;DHT22;3504;52.616;13.238;2024-01-25T04:14:34;7.74;72.32
6930;DHT22;3504;52.616;13.238;2024-01-25T04:19:36;7.75;72.48
6930;DHT22;3504;52.616;13.238;2024-01-25T04:24:36;7.73;72.59
6930;DHT22;3504;52.616;13.238;2024-01-25T04:29:40;7.73;72.89
6930;DHT22;3504;52.616;13.238;2024-01-25T04:34:43;7.68;72.80
6930;DHT22;3504;52.616;13.238;2024-01-25T04:39:44;7.70;73.24
6930;DHT22;3504;52.616;13.238;2024-01-25T04:44:45;7.67;73.26
6930;DHT22;3504;52.616;13.238;2024-01-25T04:49:45;7.65;72.97
6930;DHT22;3504;52.616;13.238;2024-01-25T04:54:46;7.65;72.86
6930;DHT22;3504;52.616;13.238;2024-01-25T04:59:46;7.65;72.90
6930;DHT22;3504;52.616;13.238;2024-01-25T05:04:47;7.63;73.12
6930;DHT22;3504;52.616;13.238;2024-01-25T05:09:47;7.65;73.05
6930;DHT22;3504;52.616;13.238;2024-01-25T05:14:47;7.64;73.18
6930;DHT22;3504;52.616;13.238;2024-01-25T05:19:48;7.65;73.17
6930;DHT22;3504;52.616;13.238;2024-01-25T05:24:49;7.63;73.51
6930;DHT22;3504;52.616;13.238;2024-01-25T05:29:49;7.60;73.03
6930;DHT22;3504;52.616;13.238;2024-01-25T05:34:50;7.64;73.02
6930;DHT22;3504;52.616;13.238;2024-01-25T05:39:50;7.65;72.51
6930;DHT22;3504;52.616;13.238;2024-01-25T05:44:51;7.65;72.44
6930;DHT22;3504;52.616;13.238;2024-01-25T05:49:51;7.65;72.02
6930;DHT22;3504;52.616;13.238;2024-01-25T05:54:52;7.65;71.98
6930;DHT22;3504;52.616;13.238;2024-01-25T05:59:52;7.65;72.05
6930;DHT22;3504;52.616;13.238;2024-01-25T06:04:53;7.65;71.76
6930;DHT22;3504;52.616;13.238;2024-01-25T06:09:54;7.64;71.72
6930;DHT22;3504;52.616;13.238;2024-01-25T06:14:54;7.65;71.52
6930;DHT22;3504;52.616;13.238;2024-01-25T06:19:55;7.68;71.18
6930;DHT22;3504;52.616;13.238;2024-01-25T06:24:55;7.67;71.38
6930;DHT22;3504;52.616;13.238;2024-01-25T06:29:56;7.65;71.24
6930;DHT22;3504;52.616;13.238;2024-01-25T06:34:56;7.63;71.36
6930;DHT22;3504;52.616;13.238;2024-01-25T06:39:57;7.60;71.56
6930;DHT22;3504;52.616;13.238;2024-01-25T06:44:57;7.61;71.52
6930;DHT22;3504;52.616;13.238;2024-01-25T06:49:58;7.61;71.69
6930;DHT22;3504;52.616;13.238;2024-01-25T06:54:58;7.61;71.73
6930;DHT22;3504;52.616;13.238;2024-01-25T06:59:59;7.61;71.63
6930;DHT22;3504;52.616;13.238;2024-01-25T07:04:59;7.60;71.65
6930;DHT22;3504;52.616;13.238;2024-01-25T07:10:01;7.60;71.29
6930;DHT22;3504;52.616;13.238;2024-01-25T07:15:02;7.63;71.70
6930;DHT22;3504;52.616;13.238;2024-01-25T07:20:03;7.64;72.06
6930;DHT22;3504;52.616;13.238;2024-01-25T07:25:05;7.63;72.34
6930;DHT22;3504;52.616;13.238;2024-01-25T07:30:07;7.63;72.54
6930;DHT22;3504;52.616;13.238;2024-01-25T07:35:09;7.61;72.80
6930;DHT22;3504;52.616;13.238;2024-01-25T07:40:12;7.64;72.66
6930;DHT22;3504;52.616;13.238;2024-01-25T07:45:13;7.60;72.54
6930;DHT22;3504;52.616;13.238;2024-01-25T07:50:13;7.63;72.39
6930;DHT22;3504;52.616;13.238;2024-01-25T07:55:14;7.63;72.30
6930;DHT22;3504;52.616;13.238;2024-01-25T08:00:14;7.64;72.24
6930;DHT22;3504;52.616;13.238;2024-01-25T08:05:15;7.64;72.22
6930;DHT22;3504;52.616;13.238;2024-01-25T08:10:15;7.67;72.48
6930;DHT22;3504;52.616;13.238;2024-01-25T08:15:17;7.64;72.30
6930;DHT22;3504;52.616;13.238;2024-01-25T08:20:17;7.70;72.37
6930;DHT22;3504;52.616;13.238;2024-01-25T08:25:18;7.73;72.39
6930;DHT22;3504;52.616;13.238;2024-01-25T08:30:20;7.80;72.59
6930;DHT22;3504;52.616;13.238;2024-01-25T08:35:21;7.84;72.15
6930;DHT22;3504;52.616;13.238;2024-01-25T08:40:21;7.83;72.23
6930;DHT22;3504;52.616;13.238;2024-01-25T08:45:22;7.83;72.36
6930;DHT22;3504;52.616;13.238;2024-01-25T08:50:22;7.87;72.33
6930;DHT22;3504;52.616;13.238;2024-01-25T08:55:23;7.85;72.34
6930;DHT22;3504;52.616;13.238;2024-01-25T09:00:24;7.85;72.30
6930;DHT22;3504;52.616;13.238;2024-01-25T09:05:24;7.87;71.98
6930;DHT22;3504;52.616;13.238;2024-01-25T09:10:28;7.84;71.93
6930;DHT22;3504;52.616;13.238;2024-01-25T09:15:31;7.88;71.90
6930;DHT22;3504;52.616;13.238;2024-01-25T09:20:32;7.87;72.38
6930;DHT22;3504;52.616;13.238;2024-01-25T09:25:33;7.93;71.99
6930;DHT22;3504;52.616;13.238;2024-01-25T09:30:36;7.91;72.30
6930;DHT22;3504;52.616;13.238;2024-01-25T09:35:37;7.90;72.43
6930;DHT22;3504;52.616;13.238;2024-01-25T09:40:38;7.94;72.27
6930;DHT22;3504;52.616;13.238;2024-01-25T09:45:38;7.94;72.25
6930;DHT22;3504;52.616;13.238;2024-01-25T09:50:40;7.97;72.17
6930;DHT22;3504;52.616;13.238;2024-01-25T09:55:42;8.02;72.32
6930;DHT22;3504;52.616;13.238;2024-01-25T10:00:45;7.98;72.08
6930;DHT22;3504;52.616;13.238;2024-01-25T10:05:45;8.01;72.27
6930;DHT22;3504;52.616;13.238;2024-01-25T10:10:46;8.01;71.94
6930;DHT22;3504;52.616;13.238;2024-01-25T10:15:46;8.05;71.41
6930;DHT22;3504;52.616;13.238;2024-01-25T10:20:48;8.07;71.27
6930;DHT22;3504;52.616;13.238;2024-01-25T10:25:48;8.21;71.63
6930;DHT22;3504;52.616;13.238;2024-01-25T10:30:50;8.21;71.45
6930;DHT22;3504;52.616;13.238;2024-01-25T10:35:55;8.22;70.59
6930;DHT22;3504;52.616;13.238;2024-01-25T10:41:03;8.16;70.36
6930;DHT22;3504;52.616;13.238;2024-01-25T10:46:05;8.22;69.99
6930;DHT22;3504;52.616;13.238;2024-01-25T10:51:06;8.24;69.57
6930;DHT22;3504;52.616;13.238;2024-01-25T10:56:07;8.28;69.96
6930;DHT22;3504;52.616;13.238;2024-01-25T11:01:10;8.35;70.24
6930;DHT22;3504;52.616;13.238;2024-01-25T11:06:11;8.36;69.58
6930;DHT22;3504;52.616;13.238;2024-01-25T11:11:14;8.48;69.57
6930;DHT22;3504;52.616;13.238;2024-01-25T11:16:28;8.49;69.45
6930;DHT22;3504;52.616;13.238;2024-01-25T11:21:41;8.49;68.99
6930;DHT22;3504;52.616;13.238;2024-01-25T11:26:43;8.54;68.87
6930;DHT22;3504;52.616;13.238;2024-01-25T11:31:47;8.56;68.35
6930;DHT22;3504;52.616;13.238;2024-01-25T11:36:47;8.59;67.83
6930;DHT22;3504;52.616;13.238;2024-01-25T11:41:51;8.63;68.24
6930;DHT22;3504;52.616;13.238;2024-01-25T11:46:55;8.56;67.66
6930;DHT22;3504;52.616;13.238;2024-01-25T11:51:58;8.59;68.09
6930;DHT22;3504;52.616;13.238;2024-01-25T11:56:59;8.66;68.15
6930;DHT22;3504;52.616;13.238;2024-01-25T12:02:01;8.67;67.87
6930;DHT22;3504;52.616;13.238;2024-01-25T12:07:01;8.70;67.67
6930;DHT22;3504;52.616;13.238;2024-01-25T12:12:04;8.69;67.95
6930;DHT22;3504;52.616;13.238;2024-01-25T12:17:05;8.73;67.99
6930;DHT22;3504;52.616;13.238;2024-01-25T12:22:06;8.77;67.97
6930;DHT22;3504;52.616;13.238;2024-01-25T12:27:06;8.74;67.77
6930;DHT22;3504;52.616;13.238;2024-01-25T12:32:07;8.77;67.61
6930;DHT22;3504;52.616;13.238;2024-01-25T12:37:07;8.79;68.35
6930;DHT22;3504;52.616;13.238;2024-01-25T12:42:08;8.80;68.55
6930;DHT22;3504;52.616;13.238;2024-01-25T12:47:09;8.79;67.86
6930;DHT22;3504;52.616;13.238;2024-01-25T12:52:13;8.83;67.80
6930;DHT22;3504;52.616;13.238;2024-01-25T12:57:15;8.84;67.67
6930;DHT22;3504;52.616;13.238;2024-01-25T13:02:15;8.90;68.20
6930;DHT22;3504;52.616;13.238;2024-01-25T13:07:16;8.98;67.64
6930;DHT22;3504;52.616;13.238;2024-01-25T13:12:16;8.98;67.69
6930;DHT22;3504;52.616;13.238;2024-01-25T13:17:17;9.01;67.97
6930;DHT22;3504;52.616;13.238;2024-01-25T13:22:17;9.03;67.72
6930;DHT22;3504;52.616;13.238;2024-01-25T13:27:21;8.97;67.50
6930;DHT22;3504;52.616;13.238;2024-01-25T13:32:24;8.93;67.53
6930;DHT22;3504;52.616;13.238;2024-01-25T13:37:25;8.96;68.55
6930;DHT22;3504;52.616;13.238;2024-01-25T13:42:25;8.93;69.32
6930;DHT22;3504;52.616;13.238;2024-01-25T13:47:26;8.80;69.29
6930;DHT22;3504;52.616;13.238;2024-01-25T13:52:26;8.67;69.74
6930;DHT22;3504;52.616;13.238;2024-01-25T13:57:27;8.57;70.02
6930;DHT22;3504;52.616;13.238;2024-01-25T14:02:27;8.52;70.00
6930;DHT22;3504;52.616;13.238;2024-01-25T14:07:28;8.45;70.11
6930;DHT22;3504;52.616;13.238;2024-01-25T14:12:28;8.35;70.16
6930;DHT22;3504;52.616;13.238;2024-01-25T14:17:29;8.32;70.15
6930;DHT22;3504;52.616;13.238;2024-01-25T14:22:29;8.29;70.02
6930;DHT22;3504;52.616;13.238;2024-01-25T14:27:30;8.24;69.72
6930;DHT22;3504;52.616;13.238;2024-01-25T14:32:31;8.22;69.97
6930;DHT22;3504;52.616;13.238;2024-01-25T14:37:31;8.12;70.42
6930;DHT22;3504;52.616;13.238;2024-01-25T14:42:32;8.15;70.44
6930;DHT22;3504;52.616;13.238;2024-01-25T14:47:33;8.12;70.86
6930;DHT22;3504;52.616;13.238;2024-01-25T14:52:33;8.12;70.82
6930;DHT22;3504;52.616;13.238;2024-01-25T14:57:34;8.02;71.20
6930;DHT22;3504;52.616;13.238;2024-01-25T15:02:35;8.01;71.36
6930;DHT22;3504;52.616;13.238;2024-01-25T15:07:35;7.94;71.79
6930;DHT22;3504;52.616;13.238;2024-01-25T15:12:36;7.94;71.87
6930;DHT22;3504;52.616;13.238;2024-01-25T15:17:36;7.91;71.97
6930;DHT22;3504;52.616;13.238;2024-01-25T15:22:37;7.90;71.97
6930;DHT22;3504;52.616;13.238;2024-01-25T15:27:38;7.91;71.86
6930;DHT22;3504;52.616;13.238;2024-01-25T15:32:39;7.81;72.05
6930;DHT22;3504;52.616;13.238;2024-01-25T15:37:39;7.81;72.19
6930;DHT22;3504;52.616;13.238;2024-01-25T15:42:42;7.83;72.12
6930;DHT22;3504;52.616;13.238;2024-01-25T15:47:44;7.85;72.20
6930;DHT22;3504;52.616;13.238;2024-01-25T15:52:45;7.83;72.33
6930;DHT22;3504;52.616;13.238;2024-01-25T15:57:46;7.80;72.21
6930;DHT22;3504;52.616;13.238;2024-01-25T16:02:47;7.83;72.17
6930;DHT22;3504;52.616;13.238;2024-01-25T16:07:47;7.81;72.25
6930;DHT22;3504;52.616;13.238;2024-01-25T16:12:49;7.78;71.99
6930;DHT22;3504;52.616;13.238;2024-01-25T16:17:50;7.83;72.27
6930;DHT22;3504;52.616;13.238;2024-01-25T16:22:50;7.84;72.06
6930;DHT22;3504;52.616;13.238;2024-01-25T16:27:51;7.83;72.11
6930;DHT22;3504;52.616;13.238;2024-01-25T16:32:51;7.80;72.36
6930;DHT22;3504;52.616;13.238;2024-01-25T16:37:52;7.77;72.95
6930;DHT22;3504;52.616;13.238;2024-01-25T16:42:53;7.78;73.17
6930;DHT22;3504;52.616;13.238;2024-01-25T16:47:54;7.74;73.23
6930;DHT22;3504;52.616;13.238;2024-01-25T16:52:55;7.74;73.57
6930;DHT22;3504;52.616;13.238;2024-01-25T16:57:56;7.73;73.92
6930;DHT22;3504;52.616;13.238;2024-01-25T17:02:57;7.68;74.07
6930;DHT22;3504;52.616;13.238;2024-01-25T17:07:58;7.67;74.25
6930;DHT22;3504;52.616;13.238;2024-01-25T17:12:58;7.65;74.40
6930;DHT22;3504;52.616;13.238;2024-01-25T17:17:59;7.61;74.55
6930;DHT22;3504;52.616;13.238;2024-01-25T17:22:59;7.58;74.55
6930;DHT22;3504;52.616;13.238;2024-01-25T17:28:00;7.56;74.68
6930;DHT22;3504;52.616;13.238;2024-01-25T17:33:01;7.57;74.77
6930;DHT22;3504;52.616;13.238;2024-01-25T17:38:01;7.54;74.95
6930;DHT22;3504;52.616;13.238;2024-01-25T17:43:03;7.50;75.07
6930;DHT22;3504;52.616;13.238;2024-01-25T17:48:04;7.51;74.94
6930;DHT22;3504;52.616;13.238;2024-01-25T17:53:04;7.56;75.05
6930;DHT22;3504;52.616;13.238;2024-01-25T17:58:05;7.56;75.00
6930;DHT22;3504;52.616;13.238;2024-01-25T18:03:05;7.48;75.03
6930;DHT22;3504;52.616;13.238;2024-01-25T18:08:06;7.46;75.25
6930;DHT22;3504;52.616;13.238;2024-01-25T18:13:06;7.50;75.16
6930;DHT22;3504;52.616;13.238;2024-01-25T18:18:07;7.44;75.29
6930;DHT22;3504;52.616;13.238;2024-01-25T18:23:09;7.42;75.30
6930;DHT22;3504;52.616;13.238;2024-01-25T18:28:10;7.42;75.49
6930;DHT22;3504;52.616;13.238;2024-01-25T18:33:11;7.37;75.70
6930;DHT22;3504;52.616;13.238;2024-01-25T18:38:12;7.40;75.70
6930;DHT22;3504;52.616;13.238;2024-01-25T18:43:12;7.36;75.71
6930;DHT22;3504;52.616;13.238;2024-01-25T18:48:13;7.37;75.89
6930;DHT22;3504;52.616;13.238;2024-01-25T18:53:13;7.33;76.10
6930;DHT22;3504;52.616;13.238;2024-01-25T18:58:14;7.30;76.19
6930;DHT22;3504;52.616;13.238;2024-01-25T19:03:15;7.27;76.45
6930;DHT22;3504;52.616;13.238;2024-01-25T19:08:16;7.24;76.79
6930;DHT22;3504;52.616;13.238;2024-01-25T19:13:16;7.20;76.68
6930;DHT22;3504;52.616;13.238;2024-01-25T19:18:18;7.22;76.72
6930;DHT22;3504;52.616;13.238;2024-01-25T19:23:18;7.19;76.66
6930;DHT22;3504;52.616;13.238;2024-01-25T19:28:19;7.19;76.84
6930;DHT22;3504;52.616;13.238;2024-01-25T19:33:19;7.19;76.83
6930;DHT22;3504;52.616;13.238;2024-01-25T19:38:20;7.12;76.86
6930;DHT22;3504;52.616;13.238;2024-01-25T19:43:20;7.11;77.02
6930;DHT22;3504;52.616;13.238;2024-01-25T19:48:21;7.13;76.70
6930;DHT22;3504;52.616;13.238;2024-01-25T19:53:22;7.08;76.73
6930;DHT22;3504;52.616;13.238;2024-01-25T19:58:22;7.03;76.89
6930;DHT22;3504;52.616;13.238;2024-01-25T20:03:28;7.01;76.96
6930;DHT22;3504;52.616;13.238;2024-01-25T20:08:29;6.95;77.26
6930;DHT22;3504;52.616;13.238;2024-01-25T20:13:30;6.96;77.28
6930;DHT22;3504;52.616;13.238;2024-01-25T20:18:31;6.95;77.43
6930;DHT22;3504;52.616;13.238;2024-01-25T20:23:32;6.87;77.64
6930;DHT22;3504;52.616;13.238;2024-01-25T20:28:32;6.87;77.51
6930;DHT22;3504;52.616;13.238;2024-01-25T20:33:34;6.82;77.80
6930;DHT22;3504;52.616;13.238;2024-01-25T20:38:34;6.80;77.77
6930;DHT22;3504;52.616;13.238;2024-01-25T20:43:35;6.81;77.95
6930;DHT22;3504;52.616;13.238;2024-01-25T20:48:35;6.77;77.77
6930;DHT22;3504;52.616;13.238;2024-01-25T20:53:36;6.67;78.26
6930;DHT22;3504;52.616;13.238;2024-01-25T20:58:36;6.65;78.51
6930;DHT22;3504;52.616;13.238;2024-01-25T21:03:37;6.61;78.34
6930;DHT22;3504;52.616;13.238;2024-01-25T21:08:38;6.54;78.52
6930;DHT22;3504;52.616;13.238;2024-01-25T21:13:39;6.48;78.46
6930;DHT22;3504;52.616;13.238;2024-01-25T21:18:42;6.42;78.63
6930;DHT22;3504;52.616;13.238;2024-01-25T21:23:42;6.36;78.95
6930;DHT22;3504;52.616;13.238;2024-01-25T21:28:43;6.29;78.99
6930;DHT22;3504;52.616;13.238;2024-01-25T21:33:44;6.21;78.93
6930;DHT22;3504;52.616;13.238;2024-01-25T21:38:47;6.16;78.92
6930;DHT22;3504;52.616;13.238;2024-01-25T21:43:47;6.13;79.20
6930;DHT22;3504;52.616;13.238;2024-01-25T21:48:48;6.05;79.30
6930;DHT22;3504;52.616;13.238;2024-01-25T21:53:48;5.96;79.88
6930;DHT22;3504;52.616;13.238;2024-01-25T21:58:49;5.83;80.03
6930;DHT22;3504;52.616;13.238;2024-01-25T22:03:49;5.79;80.09
6930;DHT22;3504;52.616;13.238;2024-01-25T22:08:50;5.74;79.85
6930;DHT22;3504;52.616;13.238;2024-01-25T22:13:50;5.64;80.18
6930;DHT22;3504;52.616;13.238;2024-01-25T22:18:53;5.57;80.46
6930;DHT22;3504;52.616;13.238;2024-01-25T22:23:54;5.44;81.02
6930;DHT22;3504;52.616;13.238;2024-01-25T22:28:54;5.38;80.89
6930;DHT22;3504;52.616;13.238;2024-01-25T22:33:55;5.34;81.21
6930;DHT22;3504;52.616;13.238;2024-01-25T22:38:58;5.30;81.01
6930;DHT22;3504;52.616;13.238;2024-01-25T22:43:59;5.24;81.08
6930;DHT22;3504;52.616;13.238;2024-01-25T22:48:59;5.14;81.50
6930;DHT22;3504;52.616;13.238;2024-01-25T22:54:02;5.11;81.44
6930;DHT22;3504;52.616;13.238;2024-01-25T22:59:03;5.08;81.38
6930;DHT22;3504;52.616;13.238;2024-01-25T23:04:03;5.04;81.21
6930;DHT22;3504;52.616;13.238;2024-01-25T23:09:04;5.00;81.10
6930;DHT22;3504;52.616;13.238;2024-01-25T23:14:04;4.94;81.15
6930;DHT22;3504;52.616;13.238;2024-01-25T23:19:05;4.84;80.92
6930;DHT22;3504;52.616;13.238;2024-01-25T23:24:05;4.79;81.35
6930;DHT22;3504;52.616;13.238;2024-01-25T23:29:07;4.77;81.33
6930;DHT22;3504;52.616;13.238;2024-01-25T23:34:07;4.75;81.27
6930;DHT22;3504;52.616;13.238;2024-01-25T23:39:08;4.73;81.13
6930;DHT22;3504;52.616;13.238;2024-01-25T23:44:08;4.66;80.68
6930;DHT22;3504;52.616;13.238;2024-01-25T23:49:09;4.61;80.76
6930;DHT22;3504;52.616;13.238;2024-01-25T23:54:10;4.55;80.54
6930;DHT22;3504;52.616;13.238;2024-01-25T23:59:10;4.45;80.32
